Time;durP1;ratioP1;P1;durP2;ratioP2;P2;SDS_P1;SDS_P2;PMS_P1;PMS_P2;Temp;Humidity;BMP_temperature;BMP_pressure;BME280_temperature;BME280_humidity;BME280_pressure;Samples;Min_cycle;Max_cycle;Signal;HPM_P1;HPM_P2
2023/01/21 00:02:37;;;;;;;22.50;9.90;;;0.30;99.90;;;;;;7793613;28;20759;-89
2023/01/21 00:06:23;;;;;;;26.83;10.40;;;0.30;99.90;;;;;;7793007;28;20656;-88
2023/01/21 00:10:09;;;;;;;30.07;10.70;;;0.30;99.90;;;;;;7793300;28;20206;-88
2023/01/21 00:13:55;;;;;;;30.53;11.30;;;0.30;99.90;;;;;;7793723;28;20186;-89
2023/01/21 00:17:42;;;;;;;24.40;10.87;;;0.30;99.90;;;;;;7792011;28;20672;-89
2023/01/21 00:21:28;;;;;;;26.67;11.03;;;0.30;99.90;;;;;;7792811;28;20232;-89
2023/01/21 00:25:14;;;;;;;27.80;11.40;;;0.20;99.90;;;;;;7792566;28;20232;-89
2023/01/21 00:28:59;;;;;;;29.43;11.20;;;0.20;99.90;;;;;;7791766;28;20217;-88
2023/01/21 00:32:45;;;;;;;26.77;10.83;;;0.10;99.90;;;;;;7802992;28;20189;-88
2023/01/21 00:36:30;;;;;;;31.07;11.93;;;0.20;99.90;;;;;;7814317;28;20795;-89
2023/01/21 00:40:16;;;;;;;27.43;11.17;;;0.00;99.90;;;;;;7822979;28;20189;-89
2023/01/21 00:44:03;;;;;;;28.80;10.87;;;0.00;99.90;;;;;;7822867;28;20178;-88
2023/01/21 00:47:49;;;;;;;31.03;12.27;;;0.10;99.90;;;;;;7822205;28;20206;-89
2023/01/21 00:51:34;;;;;;;32.53;11.67;;;0.20;99.90;;;;;;7822673;28;20216;-88
2023/01/21 00:55:20;;;;;;;27.93;12.07;;;0.20;99.90;;;;;;7822442;28;20174;-89
2023/01/21 00:59:05;;;;;;;31.83;11.67;;;0.20;99.90;;;;;;7822162;28;20201;-88
2023/01/21 01:02:51;;;;;;;28.97;11.57;;;0.10;99.90;;;;;;7822676;28;20178;-88
2023/01/21 01:06:37;;;;;;;34.70;12.93;;;0.10;99.90;;;;;;7821557;28;20199;-89
2023/01/21 01:10:22;;;;;;;30.83;11.63;;;0.00;99.90;;;;;;7837045;28;20206;-88
2023/01/21 01:14:08;;;;;;;30.90;11.93;;;0.00;99.90;;;;;;7827179;28;20185;-88
2023/01/21 01:17:54;;;;;;;26.47;10.67;;;0.00;99.90;;;;;;7832181;28;20612;-88
2023/01/21 01:21:40;;;;;;;29.27;11.47;;;0.10;99.90;;;;;;7852794;28;20650;-89
2023/01/21 01:25:26;;;;;;;27.77;11.50;;;0.10;99.90;;;;;;7852473;28;20576;-88
2023/01/21 01:29:12;;;;;;;36.43;11.57;;;0.20;99.90;;;;;;7852401;28;20210;-89
2023/01/21 01:32:58;;;;;;;28.77;11.67;;;0.10;99.90;;;;;;7842393;28;20169;-88
2023/01/21 01:36:44;;;;;;;30.23;11.60;;;0.10;99.90;;;;;;7838308;28;20213;-88
2023/01/21 01:40:32;;;;;;;25.33;11.20;;;0.00;99.90;;;;;;7837195;28;20205;-88
2023/01/21 01:44:55;;;;;;;28.63;12.07;;;0.00;99.90;;;;;;7821048;28;20403;-89
2023/01/21 01:48:45;;;;;;;26.80;11.40;;;-0.10;99.90;;;;;;7820634;28;20233;-88
2023/01/21 01:52:31;;;;;;;30.70;12.97;;;-0.20;99.90;;;;;;7821730;28;20231;-88
2023/01/21 01:56:17;;;;;;;27.77;12.07;;;-0.20;99.90;;;;;;7823100;28;20181;-88
2023/01/21 02:00:08;;;;;;;29.07;12.40;;;-0.20;99.90;;;;;;7851275;28;20177;-89
2023/01/21 02:03:58;;;;;;;56.27;12.47;;;-0.20;99.90;;;;;;7869554;28;20176;-88
2023/01/21 02:07:44;;;;;;;27.73;12.60;;;-0.20;99.90;;;;;;7868439;28;20193;-89
2023/01/21 02:11:30;;;;;;;34.83;13.13;;;-0.40;99.90;;;;;;7869621;28;20201;-89
2023/01/21 02:15:16;;;;;;;28.50;12.93;;;-0.30;99.90;;;;;;7869743;28;20256;-88
2023/01/21 02:19:29;;;;;;;27.77;12.33;;;-0.40;99.90;;;;;;7831129;28;20241;-88
2023/01/21 02:23:40;;;;;;;45.63;16.47;;;-0.30;99.90;;;;;;7833826;28;20181;-88
2023/01/21 02:27:41;;;;;;;29.67;13.17;;;-0.40;99.90;;;;;;7850199;28;20612;-88
2023/01/21 02:31:44;;;;;;;29.47;13.47;;;-0.40;99.90;;;;;;7850640;28;20216;-88
2023/01/21 02:35:58;;;;;;;31.03;12.87;;;-0.30;99.90;;;;;;7850718;28;20540;-88
2023/01/21 02:39:58;;;;;;;27.33;12.43;;;-0.30;99.90;;;;;;7839767;28;20205;-88
2023/01/21 02:43:56;;;;;;;29.47;12.07;;;-0.30;99.90;;;;;;7868473;28;20219;-89
2023/01/21 02:48:05;;;;;;;21.13;9.43;;;-0.30;99.90;;;;;;7846288;28;20205;-88
2023/01/21 02:51:50;;;;;;;23.77;9.17;;;-0.40;99.90;;;;;;7833045;28;20237;-88
2023/01/21 02:55:36;;;;;;;19.67;8.83;;;-0.40;99.90;;;;;;7819112;28;20174;-88
2023/01/21 02:59:22;;;;;;;21.07;9.40;;;-0.40;99.90;;;;;;7818549;28;20202;-88
2023/01/21 03:03:11;;;;;;;20.57;9.00;;;-0.30;99.90;;;;;;7819435;28;20182;-89
2023/01/21 03:07:20;;;;;;;17.00;7.97;;;-0.30;99.90;;;;;;7836394;28;20197;-89
2023/01/21 03:11:15;;;;;;;17.57;8.50;;;-0.30;99.90;;;;;;7819311;28;20554;-88
2023/01/21 03:19:17;;;;;;;19.73;9.23;;;-0.50;99.90;;;;;;7805443;28;20202;-89
2023/01/21 03:23:09;;;;;;;19.30;7.93;;;-0.50;99.90;;;;;;7788189;28;20216;-88
2023/01/21 03:26:57;;;;;;;20.57;8.83;;;-0.50;99.90;;;;;;7786700;28;20203;-88
2023/01/21 03:30:46;;;;;;;17.60;8.20;;;-0.40;99.90;;;;;;7788253;28;20203;-88
2023/01/21 03:34:36;;;;;;;20.30;8.93;;;-0.50;99.90;;;;;;7795382;28;20237;-89
2023/01/21 03:38:34;;;;;;;20.20;9.77;;;-0.40;99.90;;;;;;7820985;28;20197;-88
2023/01/21 03:42:21;;;;;;;18.17;8.73;;;-0.50;99.90;;;;;;7799965;28;20186;-88
2023/01/21 03:46:24;;;;;;;18.50;9.17;;;-0.50;99.90;;;;;;7788010;28;20186;-88
2023/01/21 03:50:21;;;;;;;25.43;9.17;;;-0.50;99.90;;;;;;7787594;28;20672;-89
2023/01/21 03:54:06;;;;;;;20.33;9.87;;;-0.40;99.90;;;;;;7791614;28;20257;-88
2023/01/21 03:57:52;;;;;;;21.70;9.37;;;-0.40;99.90;;;;;;7832034;28;20393;-88
2023/01/21 04:01:39;;;;;;;17.10;8.50;;;-0.20;99.90;;;;;;7836138;28;20170;-89
2023/01/21 04:05:24;;;;;;;19.77;9.30;;;-0.40;99.90;;;;;;7818074;28;20269;-88
2023/01/21 04:09:10;;;;;;;21.93;10.77;;;-0.50;99.90;;;;;;7817348;28;20206;-88
2023/01/21 04:12:56;;;;;;;18.97;8.73;;;-0.50;99.90;;;;;;7818237;28;20206;-88
2023/01/21 04:16:41;;;;;;;20.33;10.13;;;-0.50;99.90;;;;;;7817619;28;20600;-88
2023/01/21 04:28:10;;;;;;;26.30;10.70;;;-0.50;99.90;;;;;;7873444;28;20225;-88
2023/01/21 04:31:56;;;;;;;20.77;10.53;;;-0.50;99.90;;;;;;7823457;28;20206;-88
2023/01/21 04:35:41;;;;;;;25.67;10.30;;;-0.50;99.90;;;;;;7817326;28;20170;-88
2023/01/21 04:39:27;;;;;;;25.80;11.10;;;-0.50;99.90;;;;;;7817262;28;20194;-89
2023/01/21 04:43:12;;;;;;;19.33;9.83;;;-0.50;99.90;;;;;;7817880;28;20213;-88
2023/01/21 04:46:58;;;;;;;21.67;9.87;;;-0.50;99.90;;;;;;7821940;28;20182;-88
2023/01/21 04:50:45;;;;;;;21.53;10.53;;;-0.40;99.90;;;;;;7823203;28;20309;-88
2023/01/21 04:54:31;;;;;;;18.37;9.30;;;-0.50;99.90;;;;;;7841406;28;20196;-88
2023/01/21 04:58:17;;;;;;;20.43;9.80;;;-0.50;99.90;;;;;;7822223;28;20209;-88
2023/01/21 05:02:02;;;;;;;19.73;9.03;;;-0.60;99.90;;;;;;7822595;28;20201;-88
2023/01/21 05:05:48;;;;;;;19.73;8.47;;;-0.60;99.90;;;;;;7822393;28;20178;-90
2023/01/21 05:09:34;;;;;;;16.40;8.83;;;-0.60;99.90;;;;;;7811227;28;20225;-88
2023/01/21 05:13:19;;;;;;;18.07;8.37;;;-0.70;99.90;;;;;;7834708;28;20180;-88
2023/01/21 05:17:05;;;;;;;17.97;8.80;;;-0.70;99.90;;;;;;7822826;28;20225;-88
2023/01/21 05:20:50;;;;;;;18.37;8.87;;;-0.80;99.90;;;;;;7822655;28;20244;-89
2023/01/21 05:24:36;;;;;;;22.30;10.00;;;-0.70;99.90;;;;;;7839469;28;20169;-88
2023/01/21 05:28:22;;;;;;;22.27;10.90;;;-0.70;99.90;;;;;;7823334;28;20193;-88
2023/01/21 05:32:08;;;;;;;20.80;10.17;;;-0.70;99.90;;;;;;7821000;28;20217;-88
2023/01/21 05:35:54;;;;;;;19.90;9.37;;;-0.60;99.90;;;;;;7815501;28;20205;-89
2023/01/21 05:39:40;;;;;;;19.40;8.80;;;-0.60;99.90;;;;;;7820573;28;20194;-88
2023/01/21 05:43:26;;;;;;;19.40;8.83;;;-0.60;99.90;;;;;;7792498;28;20617;-88
2023/01/21 05:47:11;;;;;;;21.07;11.10;;;-0.60;99.90;;;;;;7791721;28;20183;-88
2023/01/21 05:50:57;;;;;;;23.30;10.53;;;-0.60;99.90;;;;;;7792227;28;20909;-88
2023/01/21 05:54:43;;;;;;;20.40;9.47;;;-0.60;99.90;;;;;;7814280;28;20794;-88
2023/01/21 05:58:28;;;;;;;20.03;9.03;;;-0.70;99.90;;;;;;7816451;28;20628;-88
2023/01/21 06:02:14;;;;;;;27.27;10.23;;;-0.80;99.90;;;;;;7822197;28;20699;-88
2023/01/21 06:06:00;;;;;;;24.27;10.83;;;-0.80;99.90;;;;;;7822631;28;20201;-88
2023/01/21 06:09:45;;;;;;;30.40;12.33;;;-0.80;99.90;;;;;;7820822;28;20209;-86
2023/01/21 06:13:31;;;;;;;28.93;12.43;;;-0.80;99.90;;;;;;7822600;28;20174;-89
2023/01/21 06:17:17;;;;;;;28.67;11.67;;;-0.80;99.90;;;;;;7838810;28;20186;-89
2023/01/21 06:21:02;;;;;;;27.47;11.47;;;-0.80;99.90;;;;;;7824838;28;20599;-89
2023/01/21 06:24:48;;;;;;;22.20;10.30;;;-0.80;99.90;;;;;;7803890;28;20226;-90
2023/01/21 06:28:34;;;;;;;29.53;12.87;;;-0.80;99.90;;;;;;7831296;28;20193;-88
2023/01/21 06:32:19;;;;;;;24.87;11.27;;;-0.90;99.90;;;;;;7825762;28;20482;-89
2023/01/21 06:36:05;;;;;;;27.00;11.43;;;-0.90;99.90;;;;;;7814599;28;20182;-88
2023/01/21 06:39:51;;;;;;;25.60;11.17;;;-1.00;99.90;;;;;;7806846;28;20206;-88
2023/01/21 06:43:37;;;;;;;27.30;11.50;;;-1.00;99.90;;;;;;7832544;28;20232;-88
2023/01/21 06:47:23;;;;;;;23.23;9.90;;;-1.00;99.90;;;;;;7825535;28;20191;-90
2023/01/21 06:51:12;;;;;;;24.53;10.40;;;-0.90;99.90;;;;;;7818454;28;20245;-88
2023/01/21 06:54:58;;;;;;;24.60;9.30;;;-1.00;99.90;;;;;;7834314;28;20614;-88
2023/01/21 06:58:43;;;;;;;21.23;10.03;;;-0.90;99.90;;;;;;7852172;28;20283;-88
2023/01/21 07:02:29;;;;;;;26.10;10.70;;;-1.00;99.90;;;;;;7870210;28;20190;-88
2023/01/21 07:06:15;;;;;;;27.53;11.37;;;-1.00;99.90;;;;;;7851943;28;20188;-89
2023/01/21 07:10:00;;;;;;;24.07;11.63;;;-1.00;99.90;;;;;;7823273;28;20225;-88
2023/01/21 07:13:46;;;;;;;30.93;11.83;;;-1.10;99.90;;;;;;7808160;28;20208;-88
2023/01/21 07:17:32;;;;;;;27.40;12.13;;;-1.10;99.90;;;;;;7820620;28;20261;-87
2023/01/21 07:21:28;;;;;;;34.93;13.73;;;-1.00;99.90;;;;;;7814315;28;20565;-89
2023/01/21 07:25:13;;;;;;;26.70;14.40;;;-1.00;99.90;;;;;;7812263;28;20663;-89
2023/01/21 07:29:00;;;;;;;29.07;12.43;;;-1.00;99.90;;;;;;7804368;28;20591;-87
2023/01/21 07:32:46;;;;;;;27.40;12.83;;;-1.00;99.90;;;;;;7812777;28;20599;-88
2023/01/21 07:36:32;;;;;;;34.07;13.07;;;-1.10;99.90;;;;;;7820069;28;20178;-89
2023/01/21 07:40:18;;;;;;;28.43;12.17;;;-1.00;99.90;;;;;;7809783;28;20207;-88
2023/01/21 07:44:08;;;;;;;25.63;11.57;;;-1.00;99.90;;;;;;7813378;28;20182;-89
2023/01/21 07:47:56;;;;;;;30.23;12.07;;;-0.80;99.90;;;;;;7814477;28;20259;-89
2023/01/21 07:51:43;;;;;;;24.60;12.57;;;-0.80;99.90;;;;;;7810181;28;20585;-88
2023/01/21 07:55:29;;;;;;;23.17;11.10;;;-0.80;99.90;;;;;;7797968;28;20183;-88
2023/01/21 07:59:15;;;;;;;27.67;13.03;;;-0.80;99.90;;;;;;7812604;28;20209;-88
2023/01/21 08:03:00;;;;;;;32.03;14.20;;;-0.90;99.90;;;;;;7820327;28;20181;-88
2023/01/21 08:06:46;;;;;;;29.03;13.50;;;-0.90;99.90;;;;;;7820296;28;20173;-88
2023/01/21 08:10:31;;;;;;;29.90;13.93;;;-0.90;99.90;;;;;;7838175;28;20217;-87
2023/01/21 08:14:17;;;;;;;30.63;12.73;;;-1.00;99.90;;;;;;7815360;28;20269;-90
2023/01/21 08:18:03;;;;;;;35.23;14.43;;;-1.00;99.90;;;;;;7803427;28;20179;-88
2023/01/21 08:21:49;;;;;;;31.00;13.90;;;-1.00;99.90;;;;;;7825909;28;20202;-88
2023/01/21 08:25:35;;;;;;;28.57;12.97;;;-1.00;99.90;;;;;;7828109;28;20595;-92
2023/01/21 08:29:20;;;;;;;38.23;15.77;;;-1.00;99.90;;;;;;7825271;28;20197;-89
2023/01/21 08:33:09;;;;;;;28.67;13.40;;;-0.90;99.90;;;;;;7826516;28;20177;-87
2023/01/21 08:36:55;;;;;;;30.93;12.97;;;-0.80;99.90;;;;;;7823876;28;20170;-87
2023/01/21 08:40:41;;;;;;;27.00;12.13;;;-0.80;99.90;;;;;;7824630;28;20836;-87
2023/01/21 08:44:27;;;;;;;24.60;11.40;;;-0.80;99.90;;;;;;7822189;28;20205;-87
2023/01/21 08:48:16;;;;;;;26.63;11.60;;;-0.80;99.90;;;;;;7823805;28;20178;-87
2023/01/21 08:52:01;;;;;;;31.13;13.43;;;-0.80;99.90;;;;;;7824854;28;20202;-87
2023/01/21 08:55:47;;;;;;;26.23;12.00;;;-0.80;99.90;;;;;;7824566;28;20727;-87
2023/01/21 08:59:33;;;;;;;29.10;13.27;;;-0.80;99.90;;;;;;7824277;28;20202;-86
2023/01/21 09:03:18;;;;;;;28.00;12.93;;;-0.70;99.90;;;;;;7824640;28;20853;-87
2023/01/21 09:07:23;;;;;;;28.60;13.40;;;-0.60;99.90;;;;;;7823884;28;20228;-88
2023/01/21 09:11:10;;;;;;;25.33;12.00;;;-0.70;99.90;;;;;;7823199;28;20877;-87
2023/01/21 09:14:55;;;;;;;29.23;12.27;;;-0.70;99.90;;;;;;7836231;28;20176;-88
2023/01/21 09:18:58;;;;;;;28.00;11.63;;;-0.70;99.90;;;;;;7820302;28;20169;-88
2023/01/21 09:22:44;;;;;;;27.23;11.93;;;-0.70;99.90;;;;;;7823757;28;20594;-88
2023/01/21 09:26:29;;;;;;;25.23;11.60;;;-0.70;99.90;;;;;;7822052;28;20275;-88
2023/01/21 09:30:15;;;;;;;25.00;11.40;;;-0.70;99.90;;;;;;7818782;28;20308;-87
2023/01/21 09:34:04;;;;;;;23.83;11.13;;;-0.70;99.90;;;;;;7819779;28;20702;-87
2023/01/21 09:37:49;;;;;;;52.90;21.83;;;-0.60;99.90;;;;;;7824870;28;20262;-88
2023/01/21 09:41:40;;;;;;;34.30;16.77;;;-0.70;99.90;;;;;;7813197;28;20206;-87
2023/01/21 09:45:27;;;;;;;41.47;18.53;;;-0.60;99.90;;;;;;7814800;28;20197;-87
2023/01/21 09:49:37;;;;;;;29.63;15.17;;;-0.60;99.90;;;;;;7814426;28;20696;-88
2023/01/21 09:53:33;;;;;;;31.70;15.40;;;-0.70;99.90;;;;;;7834204;28;20178;-87
2023/01/21 09:57:52;;;;;;;32.17;14.20;;;-0.60;99.90;;;;;;7810084;28;20182;-88
2023/01/21 10:01:39;;;;;;;24.73;11.90;;;-0.60;99.90;;;;;;7807598;28;20197;-88
2023/01/21 10:05:28;;;;;;;25.73;12.20;;;-0.60;99.90;;;;;;7827533;28;20541;-87
2023/01/21 10:09:36;;;;;;;26.83;13.07;;;-0.50;99.90;;;;;;7820957;28;20612;-87
2023/01/21 10:13:40;;;;;;;21.43;11.53;;;-0.50;99.90;;;;;;7815836;28;20206;-88
2023/01/21 10:17:46;;;;;;;26.23;12.03;;;-0.50;99.90;;;;;;7827206;28;20237;-90
2023/01/21 10:21:48;;;;;;;23.40;11.43;;;-0.50;99.90;;;;;;7828040;28;20206;-87
2023/01/21 10:37:37;;;;;;;28.63;12.87;;;-0.40;99.90;;;;;;9296561;22;20251;-89
2023/01/21 10:41:25;;;;;;;25.97;12.70;;;-0.40;99.90;;;;;;7836299;28;20269;-89
2023/01/21 10:45:33;;;;;;;24.27;11.80;;;-0.40;99.90;;;;;;7858789;28;20305;-90
2023/01/21 10:49:22;;;;;;;27.37;14.67;;;-0.40;99.90;;;;;;7803239;28;20216;-90
2023/01/21 10:53:20;;;;;;;21.53;11.27;;;-0.40;99.90;;;;;;7819875;28;20197;-89
2023/01/21 10:57:53;;;;;;;29.17;11.07;;;-0.40;99.90;;;;;;7811138;28;20221;-89
2023/01/21 11:01:43;;;;;;;30.80;12.47;;;-0.40;99.90;;;;;;7807923;28;20892;-89
2023/01/21 11:05:30;;;;;;;25.90;11.33;;;-0.50;99.90;;;;;;7810506;28;20622;-89
2023/01/21 11:09:16;;;;;;;26.43;13.17;;;-0.40;99.90;;;;;;7813537;28;20198;-89
2023/01/21 11:13:04;;;;;;;21.90;10.93;;;-0.20;99.90;;;;;;7807809;28;20260;-89
2023/01/21 11:16:52;;;;;;;20.90;10.93;;;-0.30;99.90;;;;;;7817982;28;20225;-89
2023/01/21 11:20:42;;;;;;;23.57;11.97;;;-0.20;99.90;;;;;;7805294;28;20197;-89
2023/01/21 11:24:29;;;;;;;27.47;12.67;;;-0.30;99.90;;;;;;7832347;28;20667;-89
2023/01/21 11:28:23;;;;;;;26.20;13.60;;;-0.30;99.90;;;;;;7810847;28;20217;-89
2023/01/21 11:32:21;;;;;;;29.83;14.43;;;-0.30;99.90;;;;;;7826282;28;20343;-89
2023/01/21 11:36:19;;;;;;;25.13;12.43;;;-0.30;99.90;;;;;;7834760;28;20617;-90
2023/01/21 11:40:23;;;;;;;21.57;10.37;;;-0.30;99.90;;;;;;7814797;28;20201;-89
2023/01/21 11:44:16;;;;;;;21.13;10.90;;;-0.30;99.90;;;;;;7811411;28;20655;-89
2023/01/21 11:48:19;;;;;;;26.07;13.50;;;-0.30;99.90;;;;;;7825931;28;20210;-90
2023/01/21 11:52:17;;;;;;;19.77;9.93;;;-0.30;99.90;;;;;;7818927;28;20217;-90
2023/01/21 11:56:04;;;;;;;27.73;14.00;;;-0.20;99.90;;;;;;7818894;28;20251;-90
2023/01/21 11:59:52;;;;;;;65.10;35.30;;;-0.20;99.90;;;;;;7828599;28;20181;-90
2023/01/21 12:03:44;;;;;;;29.83;16.70;;;-0.20;99.90;;;;;;7821267;28;20697;-89
2023/01/21 12:07:33;;;;;;;19.97;10.17;;;-0.20;99.90;;;;;;7817717;28;20208;-90
2023/01/21 12:11:25;;;;;;;18.67;9.73;;;-0.20;99.90;;;;;;7834803;28;20218;-87
2023/01/21 12:15:42;;;;;;;22.17;10.60;;;-0.20;99.90;;;;;;7829905;28;20198;-89
2023/01/21 12:19:31;;;;;;;20.30;9.63;;;-0.20;99.90;;;;;;7803479;28;20191;-89
2023/01/21 12:23:48;;;;;;;21.13;10.90;;;-0.20;99.90;;;;;;7822933;28;20189;-90
2023/01/21 12:27:46;;;;;;;24.20;11.07;;;-0.20;99.90;;;;;;7808070;28;20209;-90
2023/01/21 12:31:54;;;;;;;18.03;9.03;;;-0.10;99.90;;;;;;7818956;28;20201;-89
2023/01/21 12:35:49;;;;;;;19.83;9.93;;;-0.10;99.90;;;;;;7805722;28;20313;-89
2023/01/21 12:39:39;;;;;;;18.70;9.67;;;-0.10;99.90;;;;;;7806369;28;20674;-90
2023/01/21 12:43:34;;;;;;;22.07;10.07;;;-0.10;99.90;;;;;;7813734;28;20798;-90
2023/01/21 12:47:28;;;;;;;18.73;9.47;;;0.00;99.90;;;;;;7830156;28;20280;-90
2023/01/21 12:51:29;;;;;;;22.13;10.20;;;0.00;99.90;;;;;;7828276;28;20205;-90
2023/01/21 12:55:23;;;;;;;22.40;11.10;;;0.00;99.90;;;;;;7809071;28;20706;-89
2023/01/21 12:59:37;;;;;;;29.03;12.50;;;-0.10;99.90;;;;;;7813070;28;20182;-89
2023/01/21 13:03:32;;;;;;;26.03;11.87;;;0.00;99.90;;;;;;7822665;28;20178;-90
2023/01/21 13:07:20;;;;;;;35.37;14.47;;;0.00;99.90;;;;;;7831139;28;20205;-90
2023/01/21 13:11:22;;;;;;;28.63;13.60;;;0.00;99.90;;;;;;7817311;28;20683;-90
2023/01/21 13:15:33;;;;;;;29.40;14.47;;;0.00;99.90;;;;;;7838261;28;20308;-90
2023/01/21 13:19:19;;;;;;;32.10;15.37;;;0.00;99.90;;;;;;7825261;28;20259;-90
2023/01/21 13:23:16;;;;;;;25.37;12.00;;;0.00;99.90;;;;;;7821984;28;20186;-89
2023/01/21 13:27:21;;;;;;;25.27;12.73;;;0.00;99.90;;;;;;7819597;28;20347;-88
2023/01/21 13:31:23;;;;;;;26.20;13.73;;;0.00;99.90;;;;;;7810271;28;20241;-88
2023/01/21 13:35:38;;;;;;;26.53;12.50;;;0.00;99.90;;;;;;7816416;28;20201;-89
2023/01/21 13:39:42;;;;;;;29.40;13.57;;;0.00;99.90;;;;;;7668483;29;20280;-88
2023/01/21 13:43:53;;;;;;;25.03;12.87;;;0.00;99.90;;;;;;7669372;29;20197;-88
2023/01/21 13:48:14;;;;;;;23.33;11.70;;;0.00;99.90;;;;;;7684585;29;20350;-86
2023/01/21 13:52:18;;;;;;;20.80;11.53;;;0.00;99.90;;;;;;7654022;29;20687;-89
2023/01/21 13:56:41;;;;;;;17.33;9.77;;;0.00;99.90;;;;;;7659608;29;20649;-89
2023/01/21 14:00:38;;;;;;;23.33;11.37;;;0.00;99.90;;;;;;7654150;29;20663;-89
2023/01/21 14:04:51;;;;;;;17.73;9.57;;;0.00;99.90;;;;;;7684248;29;20572;-89
2023/01/21 14:08:59;;;;;;;18.27;8.77;;;0.00;99.90;;;;;;7658987;29;20188;-90
2023/01/21 14:13:21;;;;;;;16.60;8.50;;;0.00;99.90;;;;;;7656597;29;20324;-90
2023/01/21 14:17:52;;;;;;;17.37;9.40;;;0.10;99.90;;;;;;7791439;28;20681;-91
2023/01/21 14:21:43;;;;;;;20.50;9.63;;;0.00;99.90;;;;;;7821402;28;20221;-90
2023/01/21 14:25:44;;;;;;;15.67;9.20;;;0.00;99.90;;;;;;7838558;28;20576;-91
2023/01/21 14:29:33;;;;;;;22.17;11.80;;;0.10;99.90;;;;;;7798229;28;20233;-90
2023/01/21 14:33:50;;;;;;;25.20;13.70;;;0.10;99.90;;;;;;7791450;28;20186;-89
2023/01/21 14:38:01;;;;;;;17.97;9.97;;;0.10;99.90;;;;;;7763022;28;20277;-89
2023/01/21 14:42:11;;;;;;;17.40;9.07;;;0.10;99.90;;;;;;7794451;28;20179;-89
2023/01/21 14:45:59;;;;;;;15.00;8.60;;;0.10;99.90;;;;;;7816152;28;20193;-89
2023/01/21 14:49:47;;;;;;;19.30;10.53;;;0.10;99.90;;;;;;7837408;28;20675;-90
2023/01/21 14:54:12;;;;;;;19.10;9.47;;;0.10;99.90;;;;;;7839819;28;20170;-88
2023/01/21 14:58:00;;;;;;;18.23;9.70;;;0.10;99.90;;;;;;7823618;28;20198;-89
2023/01/21 15:01:47;;;;;;;17.70;9.23;;;0.10;99.90;;;;;;7831845;28;20190;-91
2023/01/21 15:05:35;;;;;;;14.57;8.43;;;0.00;99.90;;;;;;7838083;28;20580;-89
2023/01/21 15:09:37;;;;;;;19.63;10.23;;;0.00;99.90;;;;;;7815031;28;20667;-88
2023/01/21 15:13:31;;;;;;;21.17;10.50;;;0.10;99.90;;;;;;7815143;28;20178;-86
2023/01/21 15:17:56;;;;;;;19.30;9.50;;;0.10;99.90;;;;;;7818989;28;20194;-86
2023/01/21 15:21:42;;;;;;;23.60;10.90;;;0.10;99.90;;;;;;7818991;28;20181;-87
2023/01/21 15:25:33;;;;;;;13.47;7.87;;;0.10;99.90;;;;;;7829661;28;20722;-87
2023/01/21 15:29:33;;;;;;;13.10;7.30;;;0.10;99.90;;;;;;7818403;28;20737;-87
2023/01/21 15:33:18;;;;;;;11.27;6.33;;;0.10;99.90;;;;;;7837792;28;20158;-87
2023/01/21 15:37:15;;;;;;;11.43;6.70;;;0.10;99.90;;;;;;7819244;28;20218;-87
2023/01/21 15:41:19;;;;;;;15.80;9.10;;;0.10;99.90;;;;;;7813195;28;20182;-89
2023/01/21 15:45:22;;;;;;;9.30;6.10;;;0.10;99.90;;;;;;7824121;28;20212;-89
2023/01/21 15:49:34;;;;;;;12.47;7.60;;;0.10;99.90;;;;;;7836014;28;20248;-88
2023/01/21 15:53:43;;;;;;;11.53;7.03;;;0.10;99.90;;;;;;7836673;28;20210;-88
2023/01/21 15:58:00;;;;;;;11.47;6.37;;;0.10;99.90;;;;;;7835799;28;20284;-88
2023/01/21 16:02:06;;;;;;;11.53;6.77;;;0.10;99.90;;;;;;7822534;28;20205;-88
2023/01/21 16:06:12;;;;;;;9.70;5.90;;;0.10;99.90;;;;;;7832074;28;20636;-87
2023/01/21 16:10:36;;;;;;;9.30;6.57;;;0.10;99.90;;;;;;7814635;28;20553;-91
2023/01/21 16:14:39;;;;;;;11.60;6.13;;;0.20;99.90;;;;;;7817718;28;20186;-89
2023/01/21 16:18:42;;;;;;;11.90;6.50;;;0.20;99.90;;;;;;7802293;28;20207;-89
2023/01/21 16:22:31;;;;;;;11.00;6.17;;;0.20;99.90;;;;;;7823905;28;20706;-88
2023/01/21 17:14:08;;;;;;;3.53;2.87;;;0.20;99.90;;;;;;7767286;28;20221;-88
2023/01/21 17:17:56;;;;;;;2.90;2.50;;;0.30;99.90;;;;;;7737759;28;20210;-88
2023/01/21 18:49:21;;;;;;;9.10;5.23;;;0.30;99.90;;;;;;8909687;22;20239;-92
2023/01/21 18:53:08;;;;;;;6.40;4.57;;;0.40;99.90;;;;;;7748670;28;20227;-92
2023/01/21 18:56:53;;;;;;;5.47;3.83;;;0.40;99.90;;;;;;7728239;28;20183;-91
2023/01/21 19:00:40;;;;;;;6.70;3.87;;;0.40;99.90;;;;;;7729744;28;20707;-92
2023/01/21 19:04:28;;;;;;;4.43;2.80;;;0.40;99.90;;;;;;7728307;28;20680;-91
2023/01/21 19:08:25;;;;;;;3.83;2.90;;;0.30;99.90;;;;;;7744520;28;20212;-91
2023/01/21 19:12:12;;;;;;;4.00;2.83;;;0.40;99.90;;;;;;7755651;28;20207;-91
2023/01/21 19:16:00;;;;;;;4.73;2.90;;;0.40;99.90;;;;;;7730561;28;20614;-92
2023/01/21 19:19:48;;;;;;;3.97;3.10;;;0.40;99.90;;;;;;7729125;28;20187;-91
2023/01/21 19:23:36;;;;;;;3.17;2.60;;;0.40;99.90;;;;;;7707662;28;20736;-91
2023/01/21 19:27:28;;;;;;;3.90;2.80;;;0.40;99.90;;;;;;7698585;28;20185;-93
2023/01/21 19:31:16;;;;;;;3.60;2.60;;;0.40;99.90;;;;;;7732690;28;20210;-91
2023/01/21 19:35:11;;;;;;;4.60;3.03;;;0.50;99.90;;;;;;7737649;28;20202;-93
2023/01/21 19:39:00;;;;;;;3.70;2.57;;;0.40;99.90;;;;;;7744674;28;20693;-92
2023/01/21 19:42:49;;;;;;;4.67;2.90;;;0.40;99.90;;;;;;7729995;28;20219;-93
2023/01/21 19:46:35;;;;;;;3.23;2.50;;;0.30;99.90;;;;;;7736037;28;20626;-92
2023/01/21 19:50:23;;;;;;;3.83;2.70;;;0.40;99.90;;;;;;7729042;28;20713;-91
2023/01/21 19:54:09;;;;;;;2.93;2.60;;;0.40;99.90;;;;;;7746023;28;20198;-92
2023/01/21 19:58:00;;;;;;;3.40;2.70;;;0.40;99.90;;;;;;7728562;28;20187;-92
2023/01/21 20:01:57;;;;;;;4.60;2.57;;;0.40;99.90;;;;;;7725805;28;20204;-92
2023/01/21 20:05:52;;;;;;;4.53;2.80;;;0.40;99.90;;;;;;7727554;28;20200;-92
2023/01/21 20:09:41;;;;;;;4.33;2.63;;;0.40;99.90;;;;;;7729599;28;20302;-92
2023/01/21 20:13:30;;;;;;;3.73;2.80;;;0.40;99.90;;;;;;7743527;28;20207;-92
2023/01/21 20:17:17;;;;;;;5.07;3.07;;;0.30;99.90;;;;;;7740502;28;20558;-92
2023/01/21 20:21:04;;;;;;;4.53;3.03;;;0.50;99.90;;;;;;7750704;28;20203;-92
2023/01/21 20:24:55;;;;;;;4.60;3.10;;;0.40;99.90;;;;;;7727947;28;20203;-92
2023/01/21 20:28:59;;;;;;;3.53;2.80;;;0.40;99.90;;;;;;7724812;28;20266;-93
2023/01/21 20:32:52;;;;;;;3.90;3.17;;;0.50;99.90;;;;;;7706887;28;20311;-92
2023/01/21 20:37:15;;;;;;;4.87;3.50;;;0.50;99.90;;;;;;7750470;28;20184;-92
2023/01/21 20:41:33;;;;;;;4.80;3.57;;;0.50;99.90;;;;;;7729754;28;20212;-92
2023/01/21 20:45:26;;;;;;;3.83;3.00;;;0.50;99.90;;;;;;7736407;28;20278;-92
2023/01/21 20:49:12;;;;;;;4.23;3.17;;;0.40;99.90;;;;;;7739569;28;20199;-92
2023/01/21 20:52:57;;;;;;;5.57;3.27;;;0.50;99.90;;;;;;7755578;28;20207;-92
2023/01/21 20:56:44;;;;;;;5.50;3.37;;;0.50;99.90;;;;;;7763674;28;20556;-92
2023/01/21 21:00:32;;;;;;;4.97;3.43;;;0.50;99.90;;;;;;7763726;28;20187;-92
2023/01/21 21:04:17;;;;;;;5.43;3.20;;;0.50;99.90;;;;;;7763594;28;20199;-92
2023/01/21 21:08:03;;;;;;;4.67;3.20;;;0.50;99.90;;;;;;7740373;28;20232;-92
2023/01/21 21:11:49;;;;;;;4.40;2.90;;;0.50;99.90;;;;;;7739107;28;20266;-92
2023/01/21 21:15:36;;;;;;;4.97;3.37;;;0.50;99.90;;;;;;7749243;28;20180;-91
2023/01/21 21:19:21;;;;;;;4.97;3.47;;;0.50;99.90;;;;;;7739089;28;20183;-91
2023/01/21 21:23:11;;;;;;;4.80;3.50;;;0.40;99.90;;;;;;7762686;28;20334;-89
2023/01/21 21:26:58;;;;;;;4.63;3.30;;;0.50;99.90;;;;;;7747198;28;20180;-92
2023/01/21 21:30:43;;;;;;;4.77;3.50;;;0.50;99.90;;;;;;7763158;28;20210;-92
2023/01/21 21:34:29;;;;;;;5.23;3.53;;;0.50;99.90;;;;;;7746200;28;20200;-91
2023/01/21 21:38:17;;;;;;;3.43;3.13;;;0.50;99.90;;;;;;7734108;28;20184;-92
2023/01/21 21:50:13;;;;;;;4.17;3.13;;;0.50;99.90;;;;;;7735476;28;20299;-92
2023/01/21 21:53:59;;;;;;;3.80;3.10;;;0.50;99.90;;;;;;7702124;28;20685;-92
2023/01/21 21:57:44;;;;;;;3.90;2.77;;;0.60;99.90;;;;;;7701725;28;20184;-92
2023/01/21 22:01:31;;;;;;;3.87;2.93;;;0.60;99.90;;;;;;7708573;28;20242;-92
2023/01/21 22:05:36;;;;;;;3.97;3.27;;;0.50;99.90;;;;;;7731780;28;20188;-92
2023/01/21 22:09:22;;;;;;;4.37;2.77;;;0.50;99.90;;;;;;7731508;28;20778;-92
2023/01/21 22:13:07;;;;;;;3.37;2.50;;;0.50;99.90;;;;;;7731332;28;20616;-92
2023/01/21 22:16:53;;;;;;;3.83;3.00;;;0.60;99.90;;;;;;7731875;28;20660;-92
2023/01/21 22:20:39;;;;;;;5.07;3.10;;;0.50;99.90;;;;;;7731180;28;20183;-92
2023/01/21 22:24:24;;;;;;;4.10;3.23;;;0.50;99.90;;;;;;7730722;28;20661;-92
2023/01/21 22:28:10;;;;;;;5.50;3.60;;;0.50;99.90;;;;;;7731543;28;20188;-92
2023/01/21 22:31:55;;;;;;;3.90;3.17;;;0.50;99.90;;;;;;7730757;28;20306;-92
2023/01/21 22:35:41;;;;;;;5.10;3.13;;;0.50;99.90;;;;;;7730969;28;20187;-92
2023/01/21 22:39:51;;;;;;;5.70;3.90;;;0.50;99.90;;;;;;7730543;28;20671;-92
2023/01/21 22:43:40;;;;;;;10.53;6.87;;;0.50;99.90;;;;;;7730827;28;20204;-92